Time;durP1;ratioP1;P1;durP2;ratioP2;P2;SDS_P1;SDS_P2;PMS_P1;PMS_P2;Temp;Humidity;BMP_temperature;BMP_pressure;BME280_temperature;BME280_humidity;BME280_pressure;Samples;Min_cycle;Max_cycle;Signal;HPM_P1;HPM_P2
2022/11/15 00:02:38;;;;;;;;;;;;;;;6.84;78.37;97919.25;4987528;28;19932;-59
2022/11/15 00:05:26;;;;;;;;;;;;;;;6.82;78.14;97918.75;4975317;28;20009;-57
2022/11/15 00:08:13;;;;;;;;;;;;;;;6.73;78.82;97917.75;4991728;28;20406;-57
2022/11/15 00:11:00;;;;;;;;;;;;;;;6.76;78.58;97911.75;4992141;28;19933;-57
2022/11/15 00:13:47;;;;;;;;;;;;;;;6.75;78.39;97916.38;4986947;28;19941;-57
2022/11/15 00:16:34;;;;;;;;;;;;;;;6.73;78.72;97913.16;4981492;28;19989;-58
2022/11/15 00:19:21;;;;;;;;;;;;;;;6.73;78.76;97907.75;4987995;28;19937;-57
2022/11/15 00:22:08;;;;;;;;;;;;;;;6.73;79.06;97918.56;4988690;28;19933;-57
2022/11/15 00:24:54;;;;;;;;;;;;;;;6.77;78.55;97914.22;4981079;28;19932;-57
2022/11/15 00:27:42;;;;;;;;;;;;;;;6.83;78.29;97918.47;4982536;28;20487;-57
2022/11/15 00:30:29;;;;;;;;;;;;;;;6.91;78.16;97916.22;4983159;28;19932;-58
2022/11/15 00:33:16;;;;;;;;;;;;;;;6.91;78.19;97908.09;4984246;28;19933;-57
2022/11/15 00:36:05;;;;;;;;;;;;;;;6.91;78.09;97916.22;4982758;28;20462;-57
2022/11/15 00:38:52;;;;;;;;;;;;;;;6.92;77.89;97915.09;4991715;28;20286;-58
2022/11/15 00:41:39;;;;;;;;;;;;;;;6.91;78.20;97906.22;5008269;28;19940;-57
2022/11/15 00:44:26;;;;;;;;;;;;;;;6.93;77.82;97911.34;5029642;28;19948;-57
2022/11/15 00:47:13;;;;;;;;;;;;;;;6.89;77.64;97910.31;5029303;28;20306;-57
2022/11/15 00:50:00;;;;;;;;;;;;;;;6.82;77.87;97902.56;5026728;28;20067;-57
2022/11/15 00:52:48;;;;;;;;;;;;;;;6.79;77.96;97909.31;5020584;28;19932;-57
2022/11/15 00:55:35;;;;;;;;;;;;;;;6.77;77.90;97902.59;5020418;28;19991;-57
2022/11/15 00:58:23;;;;;;;;;;;;;;;6.76;77.97;97903.66;5016217;28;20071;-57
2022/11/15 01:01:11;;;;;;;;;;;;;;;6.74;77.91;97898.56;5015381;28;19933;-57
2022/11/15 01:03:58;;;;;;;;;;;;;;;6.74;78.09;97900.47;5024535;28;19936;-58
2022/11/15 01:06:46;;;;;;;;;;;;;;;6.72;77.93;97905.34;5025525;28;20438;-57
2022/11/15 01:09:35;;;;;;;;;;;;;;;6.68;78.18;97898.91;5025427;28;19933;-57
2022/11/15 01:12:22;;;;;;;;;;;;;;;6.65;78.18;97900.28;5026967;28;20022;-57
2022/11/15 01:15:09;;;;;;;;;;;;;;;6.60;78.50;97894.91;5021265;28;19931;-58
2022/11/15 01:17:56;;;;;;;;;;;;;;;6.59;78.51;97898.72;5020551;28;19999;-57
2022/11/15 01:20:43;;;;;;;;;;;;;;;6.58;78.21;97894.41;5016823;28;19932;-57
2022/11/15 01:23:30;;;;;;;;;;;;;;;6.55;78.50;97887.72;5015174;28;19932;-57
2022/11/15 01:29:30;;;;;;;;;;;;;;;6.55;78.46;97889.56;5024969;28;19932;-57
2022/11/15 01:32:17;;;;;;;;;;;;;;;6.54;78.58;97887.97;5024342;28;19964;-57
2022/11/15 01:35:06;;;;;;;;;;;;;;;6.51;78.57;97877.75;5028369;28;19940;-57
2022/11/15 01:38:18;;;;;;;;;;;;;;;6.45;78.89;97889.69;5022067;28;19936;-55
2022/11/15 01:41:05;;;;;;;;;;;;;;;6.36;79.01;97864.41;5023824;28;19932;-57
2022/11/15 01:43:54;;;;;;;;;;;;;;;6.41;78.86;97872.47;5026257;28;20022;-57
2022/11/15 01:46:40;;;;;;;;;;;;;;;6.36;78.93;97864.41;5025332;28;20095;-56
2022/11/15 01:49:27;;;;;;;;;;;;;;;6.40;78.71;97873.56;5021821;28;20048;-58
2022/11/15 01:52:14;;;;;;;;;;;;;;;6.36;78.94;97875.22;5012529;28;19933;-57
2022/11/15 01:55:03;;;;;;;;;;;;;;;6.37;78.82;97861.44;5014923;28;19935;-57
2022/11/15 01:57:51;;;;;;;;;;;;;;;6.34;79.17;97858.47;5015460;28;19948;-57
2022/11/15 02:00:39;;;;;;;;;;;;;;;6.11;80.06;97850.06;5025420;28;19932;-57
2022/11/15 02:03:27;;;;;;;;;;;;;;;6.22;79.43;97848.06;5017921;28;19932;-57
2022/11/15 02:06:13;;;;;;;;;;;;;;;6.13;79.92;97850.59;5015228;28;19936;-58
2022/11/15 02:09:00;;;;;;;;;;;;;;;6.24;79.62;97841.31;5017374;28;20385;-57
2022/11/15 02:11:47;;;;;;;;;;;;;;;6.34;79.14;97837.72;5024999;28;19947;-56
2022/11/15 02:14:33;;;;;;;;;;;;;;;6.26;79.38;97827.53;5017888;28;20015;-56
2022/11/15 02:17:29;;;;;;;;;;;;;;;6.38;78.98;97825.25;5025603;28;19976;-55
2022/11/15 02:20:29;;;;;;;;;;;;;;;6.42;78.60;97826.28;5021928;28;20075;-57
2022/11/15 02:23:33;;;;;;;;;;;;;;;6.47;78.22;97828.13;5025685;28;19932;-57
2022/11/15 02:26:31;;;;;;;;;;;;;;;6.47;78.09;97822.75;4982686;28;20326;-57
2022/11/15 02:29:20;;;;;;;;;;;;;;;6.46;78.01;97821.94;5011664;28;20001;-57
2022/11/15 02:35:21;;;;;;;;;;;;;;;6.47;78.10;97806.56;5016945;28;19975;-57
2022/11/15 02:38:09;;;;;;;;;;;;;;;6.28;78.48;97796.50;5024712;28;19933;-58
2022/11/15 02:40:58;;;;;;;;;;;;;;;6.36;78.28;97800.47;5027899;28;19936;-57
2022/11/15 02:43:57;;;;;;;;;;;;;;;6.37;77.91;97796.66;5025743;28;19926;-57
2022/11/15 02:49:51;;;;;;;;;;;;;;;6.32;78.08;97804.81;5027568;28;19979;-57
2022/11/15 02:52:40;;;;;;;;;;;;;;;6.28;78.29;97796.50;5017150;28;19933;-57
2022/11/15 02:55:27;;;;;;;;;;;;;;;6.27;78.32;97792.19;5022793;28;20328;-57
2022/11/15 03:01:39;;;;;;;;;;;;;;;6.19;78.72;97782.03;5024095;28;19933;-57
2022/11/15 03:04:28;;;;;;;;;;;;;;;6.09;79.23;97778.63;5027467;28;20425;-57
2022/11/15 03:07:17;;;;;;;;;;;;;;;6.09;79.02;97774.03;5021918;28;19933;-57
2022/11/15 03:10:06;;;;;;;;;;;;;;;6.11;78.71;97777.25;5024311;28;19936;-58
2022/11/15 03:12:55;;;;;;;;;;;;;;;6.11;78.65;97760.25;5025752;28;19940;-57
2022/11/15 03:15:42;;;;;;;;;;;;;;;6.09;78.47;97763.25;5025420;28;19967;-57
2022/11/15 03:18:29;;;;;;;;;;;;;;;6.07;78.34;97765.41;5031028;28;20031;-56
2022/11/15 03:21:15;;;;;;;;;;;;;;;6.04;78.54;97766.00;5031952;28;20019;-57
2022/11/15 03:24:04;;;;;;;;;;;;;;;6.01;78.60;97766.56;5025233;28;19932;-57
2022/11/15 03:26:51;;;;;;;;;;;;;;;5.94;78.82;97766.09;5021354;28;20072;-57
2022/11/15 03:29:39;;;;;;;;;;;;;;;5.94;78.88;97761.50;5019045;28;19948;-57
2022/11/15 03:32:29;;;;;;;;;;;;;;;5.98;78.74;97756.34;5028121;28;20398;-57
2022/11/15 03:35:16;;;;;;;;;;;;;;;5.84;78.73;97756.19;5024207;28;19932;-57
2022/11/15 03:38:28;;;;;;;;;;;;;;;5.93;78.47;97759.09;5019104;28;20321;-57
2022/11/15 03:41:17;;;;;;;;;;;;;;;5.95;78.22;97754.22;5023859;28;20003;-57
2022/11/15 03:44:05;;;;;;;;;;;;;;;5.93;78.21;97745.63;5026705;28;20485;-58
2022/11/15 03:46:52;;;;;;;;;;;;;;;5.90;77.92;97746.94;5025325;28;20409;-57
2022/11/15 03:49:39;;;;;;;;;;;;;;;5.88;77.99;97751.03;5027966;28;19932;-57
2022/11/15 03:52:26;;;;;;;;;;;;;;;5.87;77.86;97739.44;5026194;28;20014;-57
2022/11/15 03:55:13;;;;;;;;;;;;;;;5.86;77.92;97745.94;5027573;28;19932;-56
2022/11/15 03:58:02;;;;;;;;;;;;;;;5.82;78.03;97742.19;5030955;28;19932;-57
2022/11/15 04:00:49;;;;;;;;;;;;;;;5.81;77.92;97737.09;5027260;28;19932;-57
2022/11/15 04:04:01;;;;;;;;;;;;;;;5.83;77.97;97732.19;5023590;28;20039;-57
2022/11/15 04:06:48;;;;;;;;;;;;;;;5.72;78.19;97737.69;5025635;28;19932;-57
2022/11/15 04:10:01;;;;;;;;;;;;;;;5.73;77.98;97733.09;5024617;28;19936;-57
2022/11/15 04:12:46;;;;;;;;;;;;;;;5.75;78.08;97745.22;5018102;28;19937;-57
2022/11/15 04:15:36;;;;;;;;;;;;;;;5.72;78.02;97748.47;5020426;28;20796;-55
2022/11/15 04:18:24;;;;;;;;;;;;;;;5.76;77.89;97754.09;5027733;28;19931;-57
2022/11/15 04:24:15;;;;;;;;;;;;;;;5.72;77.79;97753.84;5022786;28;19932;-57
2022/11/15 04:27:02;;;;;;;;;;;;;;;5.68;77.69;97735.84;5018972;28;19932;-57
2022/11/15 04:29:48;;;;;;;;;;;;;;;5.68;77.96;97733.94;5020093;28;20306;-57
2022/11/15 04:32:36;;;;;;;;;;;;;;;5.68;77.89;97730.44;5020876;28;19936;-57
2022/11/15 04:35:23;;;;;;;;;;;;;;;5.65;77.87;97741.81;5028957;28;19948;-57
2022/11/15 04:38:10;;;;;;;;;;;;;;;5.62;77.83;97743.16;5024015;28;19952;-57
2022/11/15 04:40:57;;;;;;;;;;;;;;;5.59;78.13;97742.91;5025970;28;20722;-57
2022/11/15 04:43:43;;;;;;;;;;;;;;;5.54;78.18;97743.78;5021730;28;19932;-57
2022/11/15 04:46:37;;;;;;;;;;;;;;;5.41;78.82;97736.34;5017325;28;19939;-57
2022/11/15 04:49:25;;;;;;;;;;;;;;;5.55;78.66;97731.91;5025396;28;19931;-56
2022/11/15 04:52:17;;;;;;;;;;;;;;;5.50;78.10;97737.34;5018010;28;20064;-58
2022/11/15 04:55:04;;;;;;;;;;;;;;;5.31;78.76;97731.03;5029000;28;20063;-57
2022/11/15 04:58:00;;;;;;;;;;;;;;;5.36;78.72;97731.00;5017569;28;19935;-58
2022/11/15 05:00:47;;;;;;;;;;;;;;;5.34;78.73;97719.72;5027741;28;19948;-57
2022/11/15 05:06:39;;;;;;;;;;;;;;;5.29;78.65;97712.47;5018782;28;19926;-57
2022/11/15 05:09:25;;;;;;;;;;;;;;;5.13;79.11;97709.09;5015641;28;20342;-57
2022/11/15 05:12:12;;;;;;;;;;;;;;;5.16;79.33;97695.03;5016187;28;19932;-56
2022/11/15 05:14:58;;;;;;;;;;;;;;;5.20;79.19;97695.28;5017793;28;19926;-57
2022/11/15 05:17:45;;;;;;;;;;;;;;;5.23;78.64;97690.16;5022981;28;19937;-57
2022/11/15 05:20:33;;;;;;;;;;;;;;;5.26;78.74;97686.88;5023651;28;19940;-56
2022/11/15 05:26:32;;;;;;;;;;;;;;;5.28;78.09;97691.22;5019659;28;19932;-56
2022/11/15 05:29:19;;;;;;;;;;;;;;;5.35;77.99;97689.78;5025746;28;19933;-57
2022/11/15 05:32:06;;;;;;;;;;;;;;;5.44;77.52;97688.09;5022321;28;19936;-57
2022/11/15 05:35:18;;;;;;;;;;;;;;;5.39;77.54;97690.03;5020665;28;19936;-58
2022/11/15 05:38:04;;;;;;;;;;;;;;;5.37;77.37;97687.59;5018348;28;20383;-57
2022/11/15 05:40:53;;;;;;;;;;;;;;;5.47;77.12;97689.41;5024410;28;20031;-55
2022/11/15 05:43:40;;;;;;;;;;;;;;;5.48;77.03;97689.13;5025856;28;20712;-57
2022/11/15 05:46:26;;;;;;;;;;;;;;;5.45;77.26;97681.63;5020967;28;19925;-58
2022/11/15 05:49:14;;;;;;;;;;;;;;;5.49;76.99;97689.94;5025841;28;19932;-56
2022/11/15 05:52:00;;;;;;;;;;;;;;;5.55;76.55;97693.41;5027129;28;19932;-60
2022/11/15 05:54:47;;;;;;;;;;;;;;;5.36;76.79;97682.50;5026372;28;19932;-58
2022/11/15 05:57:35;;;;;;;;;;;;;;;5.41;77.26;97688.66;5019945;28;19935;-57
2022/11/15 06:00:22;;;;;;;;;;;;;;;5.39;77.12;97684.66;5020243;28;20405;-55
2022/11/15 06:03:08;;;;;;;;;;;;;;;5.10;77.52;97688.09;5017385;28;19935;-58
2022/11/15 06:05:55;;;;;;;;;;;;;;;5.26;77.13;97686.09;5026195;28;19932;-58
2022/11/15 06:08:42;;;;;;;;;;;;;;;5.33;77.02;97686.59;5015249;28;20130;-58
2022/11/15 06:11:29;;;;;;;;;;;;;;;5.16;76.98;97689.66;5026174;28;19955;-58
2022/11/15 06:14:17;;;;;;;;;;;;;;;5.08;76.68;97684.88;5021554;28;20429;-58
2022/11/15 06:17:04;;;;;;;;;;;;;;;5.18;76.69;97689.41;5021110;28;20400;-58
2022/11/15 06:19:56;;;;;;;;;;;;;;;5.05;77.22;97690.81;5023432;28;20345;-58
2022/11/15 06:22:43;;;;;;;;;;;;;;;5.12;76.91;97685.13;5025030;28;20006;-58
2022/11/15 06:25:31;;;;;;;;;;;;;;;5.12;76.76;97691.31;5017637;28;19972;-57
2022/11/15 06:28:18;;;;;;;;;;;;;;;5.13;76.92;97698.31;5021467;28;20297;-58
2022/11/15 06:31:06;;;;;;;;;;;;;;;4.96;77.37;97692.53;5030050;28;19939;-54
2022/11/15 06:33:53;;;;;;;;;;;;;;;5.07;76.94;97685.19;5013335;28;19936;-58
2022/11/15 06:36:40;;;;;;;;;;;;;;;5.04;77.08;97689.22;5029494;28;20527;-59
2022/11/15 06:39:27;;;;;;;;;;;;;;;5.05;77.41;97693.50;5025004;28;19940;-58
2022/11/15 06:42:13;;;;;;;;;;;;;;;4.98;77.20;97693.03;5022512;28;19948;-59
2022/11/15 06:45:07;;;;;;;;;;;;;;;5.08;77.36;97698.34;5024277;28;19935;-58
2022/11/15 06:47:56;;;;;;;;;;;;;;;5.05;77.52;97704.28;5028679;28;19951;-58
2022/11/15 06:50:43;;;;;;;;;;;;;;;5.09;77.27;97702.66;5024155;28;19932;-58
2022/11/15 06:53:31;;;;;;;;;;;;;;;5.18;76.94;97700.97;5029701;28;19931;-57
2022/11/15 06:56:20;;;;;;;;;;;;;;;5.24;76.82;97705.22;5026583;28;20393;-58
2022/11/15 06:59:07;;;;;;;;;;;;;;;5.26;76.54;97708.44;5030823;28;19936;-59
2022/11/15 07:01:53;;;;;;;;;;;;;;;5.25;76.63;97711.41;5027618;28;20119;-59
2022/11/15 07:04:43;;;;;;;;;;;;;;;5.21;76.67;97707.66;5028155;28;20465;-59
2022/11/15 07:07:30;;;;;;;;;;;;;;;5.09;77.33;97704.53;5020305;28;20402;-59
2022/11/15 07:10:16;;;;;;;;;;;;;;;5.16;76.96;97702.31;5028280;28;20425;-58
2022/11/15 07:13:03;;;;;;;;;;;;;;;5.07;77.37;97702.13;5015457;28;20056;-58
2022/11/15 07:15:50;;;;;;;;;;;;;;;5.07;77.20;97693.25;5017903;28;20465;-58
2022/11/15 07:18:36;;;;;;;;;;;;;;;5.23;77.05;97697.44;5025940;28;19929;-58
2022/11/15 07:21:30;;;;;;;;;;;;;;;5.25;76.85;97701.44;5024404;28;20409;-59
2022/11/15 07:24:17;;;;;;;;;;;;;;;5.22;76.83;97691.25;5029549;28;19932;-58
2022/11/15 07:27:04;;;;;;;;;;;;;;;5.29;76.79;97682.03;5004550;28;19936;-58
2022/11/15 07:29:51;;;;;;;;;;;;;;;5.37;76.55;97681.41;5025124;28;19944;-58
2022/11/15 07:32:38;;;;;;;;;;;;;;;5.40;76.92;97672.78;5031216;28;19952;-58
2022/11/15 07:35:49;;;;;;;;;;;;;;;5.44;76.66;97668.44;5024730;28;20063;-58
2022/11/15 07:38:38;;;;;;;;;;;;;;;5.60;75.89;97663.69;5025763;28;20021;-58
2022/11/15 07:41:28;;;;;;;;;;;;;;;5.63;75.85;97668.50;5020558;28;20456;-58
2022/11/15 07:44:15;;;;;;;;;;;;;;;5.72;75.49;97662.22;5019855;28;20391;-58
2022/11/15 07:47:01;;;;;;;;;;;;;;;5.78;75.42;97665.66;5032354;28;19932;-61
2022/11/15 07:49:48;;;;;;;;;;;;;;;5.84;75.31;97664.50;5032509;28;19979;-58
2022/11/15 07:52:35;;;;;;;;;;;;;;;5.93;75.18;97662.03;5025500;28;19932;-57
2022/11/15 07:55:23;;;;;;;;;;;;;;;5.97;75.29;97663.88;5029563;28;19932;-57
2022/11/15 07:58:10;;;;;;;;;;;;;;;6.03;75.14;97659.22;5032660;28;19932;-58
2022/11/15 08:00:56;;;;;;;;;;;;;;;6.10;74.87;97665.06;5032036;28;19932;-58
2022/11/15 08:03:43;;;;;;;;;;;;;;;6.17;74.70;97678.19;5027286;28;19936;-59
2022/11/15 08:06:55;;;;;;;;;;;;;;;6.16;74.64;97672.00;5031374;28;19940;-58
2022/11/15 08:09:41;;;;;;;;;;;;;;;6.17;74.56;97668.19;5018559;28;19941;-59
2022/11/15 08:12:30;;;;;;;;;;;;;;;6.37;74.62;97664.44;5030356;28;20349;-58
2022/11/15 08:15:17;;;;;;;;;;;;;;;6.46;74.44;97664.63;5032948;28;20067;-58
2022/11/15 08:18:04;;;;;;;;;;;;;;;6.50;74.03;97655.66;5021626;28;20466;-58
2022/11/15 08:20:50;;;;;;;;;;;;;;;6.63;73.82;97659.50;5032595;28;19933;-59
2022/11/15 08:23:37;;;;;;;;;;;;;;;6.70;73.29;97649.16;5022598;28;19933;-57
2022/11/15 08:26:28;;;;;;;;;;;;;;;6.83;72.98;97653.03;5030554;28;20277;-58
2022/11/15 08:29:17;;;;;;;;;;;;;;;6.97;72.56;97653.06;5027311;28;20409;-57
2022/11/15 08:32:04;;;;;;;;;;;;;;;7.11;71.55;97653.94;5027215;28;19936;-59
2022/11/15 08:38:01;;;;;;;;;;;;;;;7.32;70.35;97654.41;5029811;28;19971;-58
2022/11/15 08:41:13;;;;;;;;;;;;;;;7.51;69.82;97649.75;5026624;28;20075;-58
2022/11/15 08:44:00;;;;;;;;;;;;;;;7.73;67.59;97642.88;5021483;28;19932;-57
2022/11/15 08:46:48;;;;;;;;;;;;;;;7.84;67.21;97633.47;5037841;28;19931;-57
2022/11/15 08:50:00;;;;;;;;;;;;;;;7.95;67.04;97632.16;5029465;28;19925;-59
2022/11/15 08:52:47;;;;;;;;;;;;;;;8.10;66.39;97639.19;5026301;28;20075;-57
2022/11/15 08:55:36;;;;;;;;;;;;;;;8.24;66.65;97636.44;5027710;28;19935;-58
2022/11/15 08:58:48;;;;;;;;;;;;;;;8.31;65.69;97636.84;5028044;28;19955;-58
2022/11/15 09:01:34;;;;;;;;;;;;;;;8.45;64.81;97634.16;5024324;28;19983;-62
2022/11/15 09:04:22;;;;;;;;;;;;;;;8.55;64.42;97637.44;5031804;28;19955;-58
2022/11/15 09:07:34;;;;;;;;;;;;;;;8.61;64.25;97632.69;5024064;28;20423;-59
2022/11/15 09:10:24;;;;;;;;;;;;;;;8.77;64.15;97628.53;5028734;28;20309;-59
2022/11/15 09:13:10;;;;;;;;;;;;;;;8.86;63.70;97624.00;5026990;28;19948;-59
2022/11/15 09:15:58;;;;;;;;;;;;;;;8.94;62.94;97622.44;5036779;28;19948;-59
2022/11/15 09:18:45;;;;;;;;;;;;;;;9.11;62.66;97621.81;5014278;28;20310;-57
2022/11/15 09:21:33;;;;;;;;;;;;;;;9.21;62.33;97620.72;5029270;28;19932;-59
2022/11/15 09:24:20;;;;;;;;;;;;;;;9.29;62.01;97618.06;5020330;28;19939;-56
2022/11/15 09:27:07;;;;;;;;;;;;;;;9.41;62.22;97621.00;5031837;28;19936;-59
2022/11/15 09:29:54;;;;;;;;;;;;;;;9.51;61.61;97602.88;5025457;28;19933;-59
2022/11/15 09:32:41;;;;;;;;;;;;;;;9.61;60.85;97608.03;5028104;28;19940;-59
2022/11/15 09:35:28;;;;;;;;;;;;;;;9.73;60.77;97610.97;5020121;28;20408;-57
2022/11/15 09:38:17;;;;;;;;;;;;;;;9.85;61.04;97613.88;5027187;28;19952;-58
2022/11/15 09:41:21;;;;;;;;;;;;;;;9.94;60.24;97600.34;5026552;28;20461;-59
2022/11/15 09:44:12;;;;;;;;;;;;;;;9.97;59.99;97603.25;5017211;28;20010;-58
2022/11/15 09:50:16;;;;;;;;;;;;;;;10.09;59.70;97591.78;5018786;28;19932;-59
2022/11/15 09:52:46;;;;;;;;;;;;;;;10.24;59.76;97587.84;5025310;28;19925;-58
2022/11/15 09:55:21;;;;;;;;;;;;;;;10.35;59.43;97586.44;5031314;28;19925;-58
2022/11/15 09:57:51;;;;;;;;;;;;;;;10.38;58.96;97585.78;5028277;28;19925;-59
2022/11/15 10:00:21;;;;;;;;;;;;;;;10.46;58.75;97573.34;5030378;28;20385;-58
2022/11/15 10:03:11;;;;;;;;;;;;;;;10.57;58.83;97574.63;5019701;28;19933;-58
2022/11/15 10:05:43;;;;;;;;;;;;;;;10.63;58.54;97577.97;5015330;28;19960;-61
2022/11/15 10:08:14;;;;;;;;;;;;;;;10.69;58.35;97572.06;5039890;28;19936;-59
2022/11/15 10:10:45;;;;;;;;;;;;;;;10.75;58.58;97567.25;5011677;28;19936;-59
2022/11/15 10:13:14;;;;;;;;;;;;;;;10.78;57.89;97557.69;5029627;28;19932;-56
2022/11/15 10:15:45;;;;;;;;;;;;;;;10.92;57.30;97561.84;5023190;28;19931;-58
2022/11/15 10:18:17;;;;;;;;;;;;;;;11.01;56.93;97567.25;5021257;28;19983;-59
2022/11/15 10:20:48;;;;;;;;;;;;;;;11.08;56.41;97556.69;5030196;28;19925;-57
2022/11/15 10:23:17;;;;;;;;;;;;;;;11.27;56.33;97542.72;5030212;28;19933;-59
2022/11/15 10:25:47;;;;;;;;;;;;;;;11.31;56.74;97538.22;5029823;28;19932;-59
2022/11/15 10:28:22;;;;;;;;;;;;;;;11.28;56.83;97539.66;5029274;28;19932;-59
2022/11/15 10:30:52;;;;;;;;;;;;;;;11.41;56.11;97532.44;5027275;28;19935;-59
2022/11/15 10:33:33;;;;;;;;;;;;;;;11.54;56.30;97531.41;5026649;28;20456;-59
2022/11/15 10:36:16;;;;;;;;;;;;;;;11.49;55.42;97518.00;5025614;28;20388;-61
2022/11/15 10:38:52;;;;;;;;;;;;;;;11.61;54.85;97511.88;5025626;28;19925;-58
2022/11/15 10:41:24;;;;;;;;;;;;;;;11.74;54.36;97512.75;5028972;28;20309;-58
2022/11/15 10:44:03;;;;;;;;;;;;;;;11.81;54.03;97507.59;5019924;28;19932;-58
2022/11/15 10:46:30;;;;;;;;;;;;;;;11.86;54.40;97507.44;5028962;28;19976;-59
2022/11/15 10:49:14;;;;;;;;;;;;;;;11.98;53.75;97501.28;5026118;28;20011;-58
2022/11/15 10:51:43;;;;;;;;;;;;;;;12.03;54.66;97493.72;5001674;28;19933;-57
2022/11/15 10:54:11;;;;;;;;;;;;;;;12.11;54.27;97488.56;5029179;28;19929;-56
2022/11/15 10:56:44;;;;;;;;;;;;;;;12.15;53.44;97484.84;5027092;28;19956;-59
2022/11/15 10:59:16;;;;;;;;;;;;;;;12.22;53.51;97478.84;5020614;28;19933;-59
2022/11/15 11:01:46;;;;;;;;;;;;;;;12.34;53.59;97473.47;5026016;28;20399;-58
2022/11/15 11:04:15;;;;;;;;;;;;;;;12.32;53.06;97478.47;5025052;28;19937;-59
2022/11/15 11:09:42;;;;;;;;;;;;;;;12.56;52.75;97478.56;5001666;28;19956;-59
2022/11/15 11:12:14;;;;;;;;;;;;;;;12.61;52.41;97468.59;5029275;28;19929;-59
2022/11/15 11:14:42;;;;;;;;;;;;;;;12.65;52.73;97469.50;5017842;28;19929;-59
2022/11/15 11:17:11;;;;;;;;;;;;;;;12.62;51.77;97464.72;5015287;28;20051;-59
2022/11/15 11:19:47;;;;;;;;;;;;;;;12.74;51.69;97467.50;5018174;28;20640;-59
2022/11/15 11:22:19;;;;;;;;;;;;;;;12.81;51.56;97463.09;5019942;28;19941;-57
2022/11/15 11:24:49;;;;;;;;;;;;;;;12.79;51.86;97459.13;5026813;28;20411;-58
2022/11/15 11:27:51;;;;;;;;;;;;;;;12.87;51.62;97458.22;5018917;28;20067;-59
2022/11/15 11:30:21;;;;;;;;;;;;;;;12.92;50.96;97447.09;5019208;28;19925;-58
2022/11/15 11:32:57;;;;;;;;;;;;;;;12.91;50.77;97456.41;5026229;28;19933;-59
2022/11/15 11:35:30;;;;;;;;;;;;;;;13.07;50.99;97445.66;5017057;28;20448;-58
2022/11/15 11:38:02;;;;;;;;;;;;;;;13.08;50.92;97450.75;5021559;28;19933;-58
2022/11/15 11:40:30;;;;;;;;;;;;;;;13.06;51.19;97438.63;5019943;28;19929;-58
2022/11/15 11:43:01;;;;;;;;;;;;;;;13.15;50.80;97443.94;5018617;28;19926;-60
2022/11/15 11:45:59;;;;;;;;;;;;;;;13.24;50.23;97444.69;5021484;28;19925;-56
2022/11/15 11:48:32;;;;;;;;;;;;;;;13.39;50.39;97433.09;5025507;28;19947;-56
2022/11/15 11:51:04;;;;;;;;;;;;;;;13.40;50.30;97425.72;5018806;28;19929;-57
2022/11/15 11:53:35;;;;;;;;;;;;;;;13.43;50.94;97430.50;5021934;28;19925;-57
2022/11/15 11:56:05;;;;;;;;;;;;;;;13.47;50.40;97418.53;5022537;28;19925;-57
2022/11/15 11:58:35;;;;;;;;;;;;;;;13.48;49.76;97414.69;5004381;28;20299;-57
2022/11/15 12:01:05;;;;;;;;;;;;;;;13.52;49.20;97421.03;5019596;28;19925;-60
2022/11/15 12:03:41;;;;;;;;;;;;;;;13.56;49.85;97421.16;5025090;28;19976;-60
2022/11/15 12:06:12;;;;;;;;;;;;;;;13.58;49.64;97407.94;5022526;28;20386;-59
2022/11/15 12:08:41;;;;;;;;;;;;;;;13.63;48.72;97403.06;5017502;28;19929;-59
2022/11/15 12:11:11;;;;;;;;;;;;;;;13.65;49.19;97400.00;5020332;28;19971;-59
2022/11/15 12:13:41;;;;;;;;;;;;;;;13.73;48.89;97404.50;5016762;28;19929;-57
2022/11/15 12:16:12;;;;;;;;;;;;;;;13.70;49.24;97404.44;5018885;28;19929;-56
2022/11/15 12:18:40;;;;;;;;;;;;;;;13.82;48.80;97398.94;5017560;28;20556;-59
2022/11/15 12:21:08;;;;;;;;;;;;;;;13.84;49.14;97399.38;5007156;28;19940;-58
2022/11/15 12:23:39;;;;;;;;;;;;;;;13.89;48.86;97397.19;5006880;28;19991;-58
2022/11/15 12:26:09;;;;;;;;;;;;;;;13.87;49.34;97398.69;5017092;28;19941;-58
2022/11/15 12:31:38;;;;;;;;;;;;;;;13.70;49.41;97397.03;5022612;28;19936;-58
2022/11/15 12:34:14;;;;;;;;;;;;;;;13.78;49.91;97395.28;5025192;28;20390;-59
2022/11/15 12:36:43;;;;;;;;;;;;;;;13.80;49.28;97387.56;5027792;28;19925;-59
2022/11/15 12:39:11;;;;;;;;;;;;;;;13.89;49.32;97391.75;5029353;28;19994;-59
2022/11/15 12:41:40;;;;;;;;;;;;;;;13.88;49.20;97384.69;5008852;28;20290;-59
2022/11/15 12:44:11;;;;;;;;;;;;;;;13.80;49.43;97387.56;5004235;28;19933;-59
2022/11/15 12:47:00;;;;;;;;;;;;;;;13.73;49.90;97387.34;5011348;28;19938;-59
2022/11/15 12:49:46;;;;;;;;;;;;;;;13.72;50.23;97385.75;4998857;28;20306;-59
2022/11/15 12:52:15;;;;;;;;;;;;;;;13.73;50.04;97387.34;5007267;28;19925;-59
2022/11/15 12:54:51;;;;;;;;;;;;;;;13.70;49.98;97379.84;5006575;28;19925;-58
2022/11/15 12:57:24;;;;;;;;;;;;;;;13.62;50.60;97376.91;5006470;28;19996;-59
2022/11/15 12:59:54;;;;;;;;;;;;;;;13.62;50.31;97381.56;5009712;28;19968;-58
2022/11/15 13:02:24;;;;;;;;;;;;;;;13.56;50.64;97378.28;5007424;28;19926;-58
2022/11/15 13:04:55;;;;;;;;;;;;;;;13.53;51.10;97370.78;5007214;28;19948;-59
2022/11/15 13:07:37;;;;;;;;;;;;;;;13.56;50.59;97367.34;5006147;28;19926;-59
2022/11/15 13:10:26;;;;;;;;;;;;;;;13.59;50.96;97372.13;5008228;28;19929;-59
2022/11/15 13:12:57;;;;;;;;;;;;;;;13.58;50.93;97370.56;5012387;28;20272;-59
2022/11/15 13:15:32;;;;;;;;;;;;;;;13.61;51.20;97361.66;5011864;28;19957;-59
2022/11/15 13:18:26;;;;;;;;;;;;;;;13.57;50.77;97366.22;5010172;28;20267;-59
2022/11/15 13:20:56;;;;;;;;;;;;;;;13.54;51.76;97360.66;5005558;28;19932;-59
2022/11/15 13:23:29;;;;;;;;;;;;;;;13.58;51.94;97364.28;4998012;28;19929;-57
2022/11/15 13:26:11;;;;;;;;;;;;;;;13.49;52.24;97361.69;5011719;28;20264;-58
2022/11/15 13:28:40;;;;;;;;;;;;;;;13.41;52.38;97359.88;5009895;28;19937;-60
2022/11/15 13:31:18;;;;;;;;;;;;;;;13.38;52.19;97346.94;5013971;28;19957;-59
2022/11/15 13:33:47;;;;;;;;;;;;;;;13.39;52.51;97342.25;5010789;28;19925;-58
2022/11/15 13:36:24;;;;;;;;;;;;;;;13.33;52.53;97342.50;5013538;28;19925;-58
2022/11/15 13:39:01;;;;;;;;;;;;;;;13.27;52.83;97332.97;5007856;28;19940;-59
2022/11/15 13:41:30;;;;;;;;;;;;;;;13.21;53.08;97333.47;5006637;28;20028;-59
2022/11/15 13:44:01;;;;;;;;;;;;;;;13.21;52.92;97331.59;5010091;28;20386;-58
2022/11/15 13:46:29;;;;;;;;;;;;;;;13.17;53.17;97321.69;5005183;28;19948;-59
2022/11/15 13:48:58;;;;;;;;;;;;;;;13.17;53.69;97321.69;5011382;28;19979;-58
2022/11/15 13:51:38;;;;;;;;;;;;;;;13.15;53.63;97313.81;5006093;28;19933;-58
2022/11/15 13:54:09;;;;;;;;;;;;;;;13.09;53.68;97316.00;5007431;28;19930;-59
2022/11/15 13:56:37;;;;;;;;;;;;;;;13.11;53.72;97316.47;5009219;28;19940;-59
2022/11/15 13:59:09;;;;;;;;;;;;;;;13.15;53.84;97311.09;5011013;28;20589;-58
2022/11/15 14:01:39;;;;;;;;;;;;;;;13.09;54.71;97304.28;5000225;28;20298;-58
2022/11/15 14:04:11;;;;;;;;;;;;;;;13.07;54.91;97307.38;5006646;28;19968;-58
2022/11/15 14:06:46;;;;;;;;;;;;;;;12.94;56.32;97307.69;5007676;28;20418;-60
2022/11/15 14:09:31;;;;;;;;;;;;;;;12.95;55.11;97299.19;5012444;28;19925;-58
2022/11/15 14:11:59;;;;;;;;;;;;;;;12.94;54.44;97300.31;5014565;28;20412;-59
2022/11/15 14:14:28;;;;;;;;;;;;;;;12.92;55.37;97299.88;5002727;28;19933;-59
2022/11/15 14:16:57;;;;;;;;;;;;;;;12.88;56.25;97309.88;5012712;28;19948;-59
2022/11/15 14:19:35;;;;;;;;;;;;;;;12.90;55.42;97313.06;5016538;28;19965;-58
2022/11/15 14:22:12;;;;;;;;;;;;;;;12.88;55.26;97311.81;5002200;28;19937;-59
2022/11/15 14:24:42;;;;;;;;;;;;;;;12.84;55.36;97311.69;4997628;28;19936;-59
2022/11/15 14:27:19;;;;;;;;;;;;;;;12.76;55.75;97298.97;5002518;28;19931;-59
2022/11/15 14:29:47;;;;;;;;;;;;;;;12.73;56.03;97297.72;5009352;28;19925;-59
2022/11/15 14:32:17;;;;;;;;;;;;;;;12.67;56.33;97303.72;5010581;28;19936;-59
2022/11/15 14:40:32;;;;;;;;;;;;;;;12.50;57.04;97296.56;5004160;28;19926;-58
2022/11/15 14:43:00;;;;;;;;;;;;;;;12.43;57.17;97296.31;5021151;28;19941;-59
2022/11/15 14:45:30;;;;;;;;;;;;;;;12.35;57.55;97287.09;5022994;28;20457;-58
2022/11/15 14:47:58;;;;;;;;;;;;;;;12.30;57.53;97300.94;5029610;28;19968;-58
2022/11/15 14:50:26;;;;;;;;;;;;;;;12.18;58.24;97281.84;5010864;28;19932;-58
2022/11/15 14:52:55;;;;;;;;;;;;;;;12.12;58.54;97288.66;5025760;28;19933;-59
2022/11/15 14:55:24;;;;;;;;;;;;;;;12.03;58.49;97286.00;5012939;28;19932;-59
2022/11/15 14:57:53;;;;;;;;;;;;;;;11.95;59.11;97284.19;5027841;28;19925;-59